Terminal Aerodrome Forecast
Issued by NWS Nashville, TN

Home | Current Version | Previous Version | Text Only | Print | Product List | Glossary On
Versions: 1 2 3 4 5 6 7 8 9 10 11 12 13 14 15 16 17 18
000
FTUS44 KOHX 111130
TAFBNA
TAF
KBNA 111130Z 1112/1212 17009KT P6SM SCT050 WS020/19035KT
     FM111500 18013G26KT P6SM BKN050
     FM120000 18015G27KT P6SM VCSH OVC035
     FM120400 19013G25KT 4SM -SHRA BR OVC015
     FM120700 21010G18KT 2SM SHRA BR OVC006=

USA.gov is the U.S. government's official web portal to all federal, state and local government web resources and services.